Pagrindinis puslapis
METAR-TAF:

METAR-TAF

Oro uostai :

Uagadugu oro uostas

Uagadugu, Burkina Fasas

platuma: 12-21N, ilguma: 001-31W, Aukštis: 316 m

Dabartinis oras

Ataskaita buvo paskelbta 55 minutes, ne 21:00 UTC
Vėjas 5 kt iš Šiaurės Rytų
Temperatūra 28°C
Drėgmė 17%
Slėgis 1012 hPa
Matomumas: 8000 m

METAR: DFFD 212100Z 04005KT 8000 NSC 28/01 Q1012 NOSIG

Laikas: 21:55 (21:55 UTC)

Prognozė

Ataskaita buvo paskelbta 4 valandos ir 55 minutes, ne 17:00 UTC
Prognozė galioja nuo 21 metu 18 UTC su 22 metu 24 UTC
Vėjas 10 kt iš Šiaurės Rytų
Matomumas: 8000 m
Laikinai
nuo 21 metu 18 UTC su 21 metu 21 UTC
Matomumas: 4000 m
dulkės
Laikinai
nuo 22 metu 06 UTC su 22 metu 10 UTC
Matomumas: 3500 m
dulkės

TAF: DFFD 211700Z 2118/2224 04010KT 8000 NSC TEMPO 2118/2121 4000 DU TEMPO 2206/2210 3500 DU

Orai ataskaitas ir orų prognozės (METAR, TAF).

turimą stotys yra geltonos ir raudonos taškus žemėlapyje.

Perkelti pele per norėdami pamatyti stoties vardą.

Tada spustelėkite, norėdami matyti oro stebėjimo ir prognozės.

Norėdami pakeisti žemėlapį: spustelėkite ant žalios mygtukų su juodo kryžiaus žemyn,; žalią mygtuką su brūkšneliu, jei norite nutolinti; arba žalių rodyklių gretimoms žemėlapius.


METAR-TAF: